sensor_id;sensor_type;location;lat;lon;timestamp;temperature;humidity
19906;DHT22;10115;50.906;4.438;2023-08-20T00:00:27;19.80;99.90
19906;DHT22;10115;50.906;4.438;2023-08-20T00:02:59;19.70;99.90
19906;DHT22;10115;50.906;4.438;2023-08-20T00:05:26;19.70;99.90
19906;DHT22;10115;50.906;4.438;2023-08-20T00:07:51;19.60;99.90
19906;DHT22;10115;50.906;4.438;2023-08-20T00:10:17;19.60;99.90
19906;DHT22;10115;50.906;4.438;2023-08-20T00:12:43;19.60;99.90
19906;DHT22;10115;50.906;4.438;2023-08-20T00:15:09;19.50;99.90
19906;DHT22;10115;50.906;4.438;2023-08-20T00:17:36;19.50;99.90
19906;DHT22;10115;50.906;4.438;2023-08-20T00:20:05;19.50;99.90
19906;DHT22;10115;50.906;4.438;2023-08-20T00:22:41;19.50;99.90
19906;DHT22;10115;50.906;4.438;2023-08-20T00:25:11;19.40;99.90
19906;DHT22;10115;50.906;4.438;2023-08-20T00:27:41;19.30;99.90
19906;DHT22;10115;50.906;4.438;2023-08-20T00:30:08;19.40;99.90
19906;DHT22;10115;50.906;4.438;2023-08-20T00:32:34;19.50;99.90
19906;DHT22;10115;50.906;4.438;2023-08-20T00:35:00;19.60;99.90
19906;DHT22;10115;50.906;4.438;2023-08-20T00:37:28;19.80;99.90
19906;DHT22;10115;50.906;4.438;2023-08-20T00:39:53;19.90;99.90
19906;DHT22;10115;50.906;4.438;2023-08-20T00:42:19;20.00;99.90
19906;DHT22;10115;50.906;4.438;2023-08-20T00:44:45;20.00;99.90
19906;DHT22;10115;50.906;4.438;2023-08-20T00:47:11;20.00;99.90
19906;DHT22;10115;50.906;4.438;2023-08-20T00:49:37;20.00;99.90
19906;DHT22;10115;50.906;4.438;2023-08-20T00:52:04;20.00;99.90
19906;DHT22;10115;50.906;4.438;2023-08-20T00:54:31;20.10;99.90
19906;DHT22;10115;50.906;4.438;2023-08-20T00:56:59;20.10;99.90
19906;DHT22;10115;50.906;4.438;2023-08-20T00:59:25;20.20;99.90
19906;DHT22;10115;50.906;4.438;2023-08-20T01:01:51;20.10;99.90
19906;DHT22;10115;50.906;4.438;2023-08-20T01:04:17;20.20;99.90
19906;DHT22;10115;50.906;4.438;2023-08-20T01:09:50;20.50;99.90
19906;DHT22;10115;50.906;4.438;2023-08-20T01:12:17;20.40;99.90
19906;DHT22;10115;50.906;4.438;2023-08-20T01:14:43;20.60;99.90
19906;DHT22;10115;50.906;4.438;2023-08-20T01:17:08;20.70;99.90
19906;DHT22;10115;50.906;4.438;2023-08-20T01:19:34;20.70;99.90
19906;DHT22;10115;50.906;4.438;2023-08-20T01:22:40;20.70;99.90
19906;DHT22;10115;50.906;4.438;2023-08-20T01:28:30;20.70;99.90
19906;DHT22;10115;50.906;4.438;2023-08-20T01:30:58;20.50;99.90
19906;DHT22;10115;50.906;4.438;2023-08-20T01:33:25;20.10;99.90
19906;DHT22;10115;50.906;4.438;2023-08-20T01:35:52;20.00;99.90
19906;DHT22;10115;50.906;4.438;2023-08-20T01:38:18;19.90;99.90
19906;DHT22;10115;50.906;4.438;2023-08-20T01:40:43;19.80;99.90
19906;DHT22;10115;50.906;4.438;2023-08-20T01:43:09;19.90;99.90
19906;DHT22;10115;50.906;4.438;2023-08-20T01:45:35;20.10;99.90
19906;DHT22;10115;50.906;4.438;2023-08-20T01:48:00;20.20;99.90
19906;DHT22;10115;50.906;4.438;2023-08-20T01:50:26;20.30;99.90
19906;DHT22;10115;50.906;4.438;2023-08-20T01:52:52;20.40;99.90
19906;DHT22;10115;50.906;4.438;2023-08-20T01:55:17;20.10;99.90
19906;DHT22;10115;50.906;4.438;2023-08-20T01:57:43;19.90;99.90
19906;DHT22;10115;50.906;4.438;2023-08-20T02:00:09;20.00;99.90
19906;DHT22;10115;50.906;4.438;2023-08-20T02:02:35;20.10;99.90
19906;DHT22;10115;50.906;4.438;2023-08-20T02:05:01;20.00;99.90
19906;DHT22;10115;50.906;4.438;2023-08-20T02:07:26;19.80;99.90
19906;DHT22;10115;50.906;4.438;2023-08-20T02:09:52;19.80;99.90
19906;DHT22;10115;50.906;4.438;2023-08-20T02:12:18;19.80;99.90
19906;DHT22;10115;50.906;4.438;2023-08-20T02:14:43;20.00;99.90
19906;DHT22;10115;50.906;4.438;2023-08-20T02:17:09;20.10;99.90
19906;DHT22;10115;50.906;4.438;2023-08-20T02:19:37;20.20;99.90
19906;DHT22;10115;50.906;4.438;2023-08-20T02:22:03;20.30;99.90
19906;DHT22;10115;50.906;4.438;2023-08-20T02:24:29;20.20;99.90
19906;DHT22;10115;50.906;4.438;2023-08-20T02:26:54;20.10;99.90
19906;DHT22;10115;50.906;4.438;2023-08-20T02:29:20;20.00;99.90
19906;DHT22;10115;50.906;4.438;2023-08-20T02:31:45;19.90;99.90
19906;DHT22;10115;50.906;4.438;2023-08-20T02:34:11;19.80;99.90
19906;DHT22;10115;50.906;4.438;2023-08-20T02:36:37;19.60;99.90
19906;DHT22;10115;50.906;4.438;2023-08-20T02:39:03;19.60;99.90
19906;DHT22;10115;50.906;4.438;2023-08-20T02:41:30;19.50;99.90
19906;DHT22;10115;50.906;4.438;2023-08-20T02:43:56;19.50;99.90
19906;DHT22;10115;50.906;4.438;2023-08-20T02:46:21;19.40;99.90
19906;DHT22;10115;50.906;4.438;2023-08-20T02:48:47;19.30;99.90
19906;DHT22;10115;50.906;4.438;2023-08-20T02:51:13;19.20;99.90
19906;DHT22;10115;50.906;4.438;2023-08-20T02:53:38;19.10;99.90
19906;DHT22;10115;50.906;4.438;2023-08-20T02:56:04;19.10;99.90
19906;DHT22;10115;50.906;4.438;2023-08-20T02:58:30;19.00;99.90
19906;DHT22;10115;50.906;4.438;2023-08-20T03:00:56;19.00;99.90
19906;DHT22;10115;50.906;4.438;2023-08-20T03:03:23;19.00;99.90
19906;DHT22;10115;50.906;4.438;2023-08-20T03:05:49;19.00;99.90
19906;DHT22;10115;50.906;4.438;2023-08-20T03:08:14;18.90;99.90
19906;DHT22;10115;50.906;4.438;2023-08-20T03:10:40;18.90;99.90
19906;DHT22;10115;50.906;4.438;2023-08-20T03:13:06;18.90;99.90
19906;DHT22;10115;50.906;4.438;2023-08-20T03:15:31;18.90;99.90
19906;DHT22;10115;50.906;4.438;2023-08-20T03:17:57;18.80;99.90
19906;DHT22;10115;50.906;4.438;2023-08-20T03:20:23;18.70;99.90
19906;DHT22;10115;50.906;4.438;2023-08-20T03:22:49;18.70;99.90
19906;DHT22;10115;50.906;4.438;2023-08-20T03:25:14;18.70;99.90
19906;DHT22;10115;50.906;4.438;2023-08-20T03:27:41;18.60;99.90
19906;DHT22;10115;50.906;4.438;2023-08-20T03:30:07;18.60;99.90
19906;DHT22;10115;50.906;4.438;2023-08-20T03:32:32;18.50;99.90
19906;DHT22;10115;50.906;4.438;2023-08-20T03:34:58;18.40;99.90
19906;DHT22;10115;50.906;4.438;2023-08-20T03:37:28;18.30;99.90
19906;DHT22;10115;50.906;4.438;2023-08-20T03:39:53;18.30;99.90
19906;DHT22;10115;50.906;4.438;2023-08-20T03:42:19;18.30;99.90
19906;DHT22;10115;50.906;4.438;2023-08-20T03:44:45;18.20;99.90
19906;DHT22;10115;50.906;4.438;2023-08-20T03:47:10;18.20;99.90
19906;DHT22;10115;50.906;4.438;2023-08-20T03:49:37;18.20;99.90
19906;DHT22;10115;50.906;4.438;2023-08-20T03:52:03;18.20;99.90
19906;DHT22;10115;50.906;4.438;2023-08-20T03:54:29;18.20;99.90
19906;DHT22;10115;50.906;4.438;2023-08-20T03:56:55;18.30;99.90
19906;DHT22;10115;50.906;4.438;2023-08-20T03:59:21;18.30;99.90
19906;DHT22;10115;50.906;4.438;2023-08-20T04:01:47;18.40;99.90
19906;DHT22;10115;50.906;4.438;2023-08-20T04:04:12;18.30;99.90
19906;DHT22;10115;50.906;4.438;2023-08-20T04:06:38;18.20;99.90
19906;DHT22;10115;50.906;4.438;2023-08-20T04:09:04;18.10;99.90
19906;DHT22;10115;50.906;4.438;2023-08-20T04:11:31;18.10;99.90
19906;DHT22;10115;50.906;4.438;2023-08-20T04:13:56;18.20;99.90
19906;DHT22;10115;50.906;4.438;2023-08-20T04:16:22;18.20;99.90
19906;DHT22;10115;50.906;4.438;2023-08-20T04:18:48;18.20;99.90
19906;DHT22;10115;50.906;4.438;2023-08-20T04:21:13;18.20;99.90
19906;DHT22;10115;50.906;4.438;2023-08-20T04:23:39;18.20;99.90
19906;DHT22;10115;50.906;4.438;2023-08-20T04:26:07;17.90;99.90
19906;DHT22;10115;50.906;4.438;2023-08-20T04:28:32;17.80;99.90
19906;DHT22;10115;50.906;4.438;2023-08-20T04:30:58;17.80;99.90
19906;DHT22;10115;50.906;4.438;2023-08-20T04:33:26;17.80;99.90
19906;DHT22;10115;50.906;4.438;2023-08-20T04:35:51;17.90;99.90
19906;DHT22;10115;50.906;4.438;2023-08-20T04:38:17;17.90;99.90
19906;DHT22;10115;50.906;4.438;2023-08-20T04:40:46;17.90;99.90
19906;DHT22;10115;50.906;4.438;2023-08-20T04:43:12;17.80;99.90
19906;DHT22;10115;50.906;4.438;2023-08-20T04:45:37;17.90;99.90
19906;DHT22;10115;50.906;4.438;2023-08-20T04:48:03;17.80;99.90
19906;DHT22;10115;50.906;4.438;2023-08-20T04:50:29;17.80;99.90
19906;DHT22;10115;50.906;4.438;2023-08-20T04:52:54;17.80;99.90
19906;DHT22;10115;50.906;4.438;2023-08-20T04:55:20;17.80;99.90
19906;DHT22;10115;50.906;4.438;2023-08-20T04:57:46;17.80;99.90
19906;DHT22;10115;50.906;4.438;2023-08-20T05:00:12;17.70;99.90
19906;DHT22;10115;50.906;4.438;2023-08-20T05:02:37;17.70;99.90
19906;DHT22;10115;50.906;4.438;2023-08-20T05:05:03;17.70;99.90
19906;DHT22;10115;50.906;4.438;2023-08-20T05:07:29;17.80;99.90
19906;DHT22;10115;50.906;4.438;2023-08-20T05:09:55;17.80;99.90
19906;DHT22;10115;50.906;4.438;2023-08-20T05:12:20;17.80;99.90
19906;DHT22;10115;50.906;4.438;2023-08-20T05:14:46;17.80;99.90
19906;DHT22;10115;50.906;4.438;2023-08-20T05:17:11;17.90;99.90
19906;DHT22;10115;50.906;4.438;2023-08-20T05:19:37;18.00;99.90
19906;DHT22;10115;50.906;4.438;2023-08-20T05:22:03;18.00;99.90
19906;DHT22;10115;50.906;4.438;2023-08-20T05:24:28;18.10;99.90
19906;DHT22;10115;50.906;4.438;2023-08-20T05:27:05;18.10;99.90
19906;DHT22;10115;50.906;4.438;2023-08-20T05:29:31;18.20;99.90
19906;DHT22;10115;50.906;4.438;2023-08-20T05:31:57;18.30;99.90
19906;DHT22;10115;50.906;4.438;2023-08-20T05:34:22;18.40;99.90
19906;DHT22;10115;50.906;4.438;2023-08-20T05:36:48;18.50;99.90
19906;DHT22;10115;50.906;4.438;2023-08-20T05:39:14;18.70;99.90
19906;DHT22;10115;50.906;4.438;2023-08-20T05:41:39;18.70;99.90
19906;DHT22;10115;50.906;4.438;2023-08-20T05:44:05;18.80;99.90
19906;DHT22;10115;50.906;4.438;2023-08-20T05:46:30;18.90;99.90
19906;DHT22;10115;50.906;4.438;2023-08-20T05:48:56;19.00;99.90
19906;DHT22;10115;50.906;4.438;2023-08-20T05:51:22;19.20;99.90
19906;DHT22;10115;50.906;4.438;2023-08-20T05:53:47;19.20;99.90
19906;DHT22;10115;50.906;4.438;2023-08-20T05:56:13;19.20;99.90
19906;DHT22;10115;50.906;4.438;2023-08-20T05:58:38;19.20;99.90
19906;DHT22;10115;50.906;4.438;2023-08-20T06:01:04;19.30;99.90
19906;DHT22;10115;50.906;4.438;2023-08-20T06:03:30;19.30;99.90
19906;DHT22;10115;50.906;4.438;2023-08-20T06:05:57;19.30;99.90
19906;DHT22;10115;50.906;4.438;2023-08-20T06:08:23;19.30;99.90
19906;DHT22;10115;50.906;4.438;2023-08-20T06:10:50;19.50;99.90
19906;DHT22;10115;50.906;4.438;2023-08-20T06:13:15;19.50;99.90
19906;DHT22;10115;50.906;4.438;2023-08-20T06:15:41;19.50;99.90
19906;DHT22;10115;50.906;4.438;2023-08-20T06:18:07;19.70;99.90
19906;DHT22;10115;50.906;4.438;2023-08-20T06:20:32;19.70;99.90
19906;DHT22;10115;50.906;4.438;2023-08-20T06:22:58;19.90;99.90
19906;DHT22;10115;50.906;4.438;2023-08-20T06:25:24;20.10;99.90
19906;DHT22;10115;50.906;4.438;2023-08-20T06:27:49;20.10;99.90
19906;DHT22;10115;50.906;4.438;2023-08-20T06:30:15;20.00;99.90
19906;DHT22;10115;50.906;4.438;2023-08-20T06:32:43;20.10;99.90
19906;DHT22;10115;50.906;4.438;2023-08-20T06:35:09;20.20;99.90
19906;DHT22;10115;50.906;4.438;2023-08-20T06:37:35;20.40;99.90
19906;DHT22;10115;50.906;4.438;2023-08-20T06:40:01;20.50;99.90
19906;DHT22;10115;50.906;4.438;2023-08-20T06:42:26;20.20;99.90
19906;DHT22;10115;50.906;4.438;2023-08-20T06:44:52;20.20;99.90
19906;DHT22;10115;50.906;4.438;2023-08-20T06:47:18;20.20;99.90
19906;DHT22;10115;50.906;4.438;2023-08-20T06:49:43;20.20;99.90
19906;DHT22;10115;50.906;4.438;2023-08-20T06:52:09;20.10;99.90
19906;DHT22;10115;50.906;4.438;2023-08-20T06:54:34;20.30;99.90
19906;DHT22;10115;50.906;4.438;2023-08-20T06:57:00;20.50;99.90
19906;DHT22;10115;50.906;4.438;2023-08-20T06:59:26;20.60;99.90
19906;DHT22;10115;50.906;4.438;2023-08-20T07:01:52;20.70;99.90
19906;DHT22;10115;50.906;4.438;2023-08-20T07:04:18;20.90;99.90
19906;DHT22;10115;50.906;4.438;2023-08-20T07:06:44;20.80;99.90
19906;DHT22;10115;50.906;4.438;2023-08-20T07:09:09;20.80;99.90
19906;DHT22;10115;50.906;4.438;2023-08-20T07:11:35;20.90;99.90
19906;DHT22;10115;50.906;4.438;2023-08-20T07:14:01;20.90;99.90
19906;DHT22;10115;50.906;4.438;2023-08-20T07:16:26;21.00;99.90
19906;DHT22;10115;50.906;4.438;2023-08-20T07:18:52;20.90;99.90
19906;DHT22;10115;50.906;4.438;2023-08-20T07:21:18;21.10;99.90
19906;DHT22;10115;50.906;4.438;2023-08-20T07:23:44;21.10;99.90
19906;DHT22;10115;50.906;4.438;2023-08-20T07:26:10;21.50;99.90
19906;DHT22;10115;50.906;4.438;2023-08-20T07:28:37;21.70;99.90
19906;DHT22;10115;50.906;4.438;2023-08-20T07:31:24;21.50;99.90
19906;DHT22;10115;50.906;4.438;2023-08-20T07:33:51;21.70;99.90
19906;DHT22;10115;50.906;4.438;2023-08-20T07:36:18;21.70;99.90
19906;DHT22;10115;50.906;4.438;2023-08-20T07:38:44;21.80;99.90
19906;DHT22;10115;50.906;4.438;2023-08-20T07:41:10;22.00;99.90
19906;DHT22;10115;50.906;4.438;2023-08-20T07:43:38;22.10;99.90
19906;DHT22;10115;50.906;4.438;2023-08-20T07:46:05;22.20;99.90
19906;DHT22;10115;50.906;4.438;2023-08-20T07:48:31;22.30;99.90
19906;DHT22;10115;50.906;4.438;2023-08-20T07:50:56;22.20;99.90
19906;DHT22;10115;50.906;4.438;2023-08-20T07:53:22;22.20;99.90
19906;DHT22;10115;50.906;4.438;2023-08-20T07:55:48;22.20;99.90
19906;DHT22;10115;50.906;4.438;2023-08-20T07:58:13;22.00;99.90
19906;DHT22;10115;50.906;4.438;2023-08-20T08:00:39;22.20;99.90
19906;DHT22;10115;50.906;4.438;2023-08-20T08:03:05;22.20;99.90
19906;DHT22;10115;50.906;4.438;2023-08-20T08:05:30;22.50;99.90
19906;DHT22;10115;50.906;4.438;2023-08-20T08:07:56;22.90;99.90
19906;DHT22;10115;50.906;4.438;2023-08-20T08:10:21;23.30;99.90
19906;DHT22;10115;50.906;4.438;2023-08-20T08:12:47;23.60;99.90
19906;DHT22;10115;50.906;4.438;2023-08-20T08:15:13;23.50;99.90
19906;DHT22;10115;50.906;4.438;2023-08-20T08:17:38;23.50;99.90
19906;DHT22;10115;50.906;4.438;2023-08-20T08:20:05;23.40;99.90
19906;DHT22;10115;50.906;4.438;2023-08-20T08:22:30;23.50;99.90
19906;DHT22;10115;50.906;4.438;2023-08-20T08:24:56;23.70;99.90
19906;DHT22;10115;50.906;4.438;2023-08-20T08:27:22;24.00;99.90
19906;DHT22;10115;50.906;4.438;2023-08-20T08:29:47;24.10;99.90
19906;DHT22;10115;50.906;4.438;2023-08-20T08:32:14;24.30;99.90
19906;DHT22;10115;50.906;4.438;2023-08-20T08:34:40;24.40;99.90
19906;DHT22;10115;50.906;4.438;2023-08-20T08:37:06;24.50;99.90
19906;DHT22;10115;50.906;4.438;2023-08-20T08:39:32;24.50;99.90
19906;DHT22;10115;50.906;4.438;2023-08-20T08:42:01;24.40;99.90
19906;DHT22;10115;50.906;4.438;2023-08-20T08:44:34;24.40;99.90
19906;DHT22;10115;50.906;4.438;2023-08-20T08:47:01;24.50;99.90
19906;DHT22;10115;50.906;4.438;2023-08-20T08:49:27;24.80;99.90
19906;DHT22;10115;50.906;4.438;2023-08-20T08:51:56;24.70;99.90
19906;DHT22;10115;50.906;4.438;2023-08-20T08:54:23;24.80;99.90
19906;DHT22;10115;50.906;4.438;2023-08-20T08:56:50;24.70;99.90
19906;DHT22;10115;50.906;4.438;2023-08-20T08:59:15;24.60;99.90
19906;DHT22;10115;50.906;4.438;2023-08-20T09:01:41;24.70;99.90
19906;DHT22;10115;50.906;4.438;2023-08-20T09:04:07;24.80;99.90
19906;DHT22;10115;50.906;4.438;2023-08-20T09:06:50;25.00;99.90
19906;DHT22;10115;50.906;4.438;2023-08-20T09:09:18;25.10;99.90
19906;DHT22;10115;50.906;4.438;2023-08-20T09:11:44;25.10;99.90
19906;DHT22;10115;50.906;4.438;2023-08-20T09:14:36;25.40;99.90
19906;DHT22;10115;50.906;4.438;2023-08-20T09:17:02;25.40;99.90
19906;DHT22;10115;50.906;4.438;2023-08-20T09:19:28;25.60;99.90
19906;DHT22;10115;50.906;4.438;2023-08-20T09:21:55;25.20;99.90
19906;DHT22;10115;50.906;4.438;2023-08-20T09:24:33;25.00;99.90
19906;DHT22;10115;50.906;4.438;2023-08-20T09:27:02;24.90;99.90
19906;DHT22;10115;50.906;4.438;2023-08-20T09:29:31;25.00;99.90
19906;DHT22;10115;50.906;4.438;2023-08-20T09:32:01;25.00;99.90
19906;DHT22;10115;50.906;4.438;2023-08-20T09:34:36;25.20;99.90
19906;DHT22;10115;50.906;4.438;2023-08-20T09:37:03;25.30;99.90
19906;DHT22;10115;50.906;4.438;2023-08-20T09:39:29;25.50;99.90
19906;DHT22;10115;50.906;4.438;2023-08-20T09:41:55;25.60;99.90
19906;DHT22;10115;50.906;4.438;2023-08-20T09:44:24;25.60;99.90
19906;DHT22;10115;50.906;4.438;2023-08-20T09:46:50;25.50;99.90
19906;DHT22;10115;50.906;4.438;2023-08-20T09:49:17;25.60;99.90
19906;DHT22;10115;50.906;4.438;2023-08-20T09:51:46;25.60;99.90
19906;DHT22;10115;50.906;4.438;2023-08-20T09:54:20;25.70;99.90
19906;DHT22;10115;50.906;4.438;2023-08-20T09:56:51;25.80;99.90
19906;DHT22;10115;50.906;4.438;2023-08-20T09:59:19;26.00;99.90
19906;DHT22;10115;50.906;4.438;2023-08-20T10:01:46;26.40;99.90
19906;DHT22;10115;50.906;4.438;2023-08-20T10:04:13;26.30;99.90
19906;DHT22;10115;50.906;4.438;2023-08-20T10:06:40;26.30;99.90
19906;DHT22;10115;50.906;4.438;2023-08-20T10:09:07;26.20;99.90
19906;DHT22;10115;50.906;4.438;2023-08-20T10:11:32;26.00;99.90
19906;DHT22;10115;50.906;4.438;2023-08-20T10:13:58;26.20;99.90
19906;DHT22;10115;50.906;4.438;2023-08-20T10:16:27;26.20;99.90
19906;DHT22;10115;50.906;4.438;2023-08-20T10:18:53;26.00;99.90
19906;DHT22;10115;50.906;4.438;2023-08-20T10:21:23;26.00;99.90
19906;DHT22;10115;50.906;4.438;2023-08-20T10:23:50;25.80;99.90
19906;DHT22;10115;50.906;4.438;2023-08-20T10:26:15;25.80;99.90
19906;DHT22;10115;50.906;4.438;2023-08-20T10:28:42;26.10;99.90
19906;DHT22;10115;50.906;4.438;2023-08-20T10:31:16;26.00;99.90
19906;DHT22;10115;50.906;4.438;2023-08-20T10:33:50;25.80;99.90
19906;DHT22;10115;50.906;4.438;2023-08-20T10:36:20;25.90;99.90
19906;DHT22;10115;50.906;4.438;2023-08-20T10:38:49;26.10;99.90
19906;DHT22;10115;50.906;4.438;2023-08-20T10:41:15;26.20;99.90
19906;DHT22;10115;50.906;4.438;2023-08-20T10:43:47;26.50;99.90
19906;DHT22;10115;50.906;4.438;2023-08-20T10:46:21;26.60;99.90
19906;DHT22;10115;50.906;4.438;2023-08-20T10:51:19;26.90;99.90
19906;DHT22;10115;50.906;4.438;2023-08-20T10:54:02;27.00;99.90
19906;DHT22;10115;50.906;4.438;2023-08-20T10:56:53;26.90;99.90
19906;DHT22;10115;50.906;4.438;2023-08-20T10:59:27;26.90;99.90
19906;DHT22;10115;50.906;4.438;2023-08-20T11:01:55;27.00;99.90
19906;DHT22;10115;50.906;4.438;2023-08-20T11:04:28;27.00;99.90
19906;DHT22;10115;50.906;4.438;2023-08-20T11:06:55;26.90;99.90
19906;DHT22;10115;50.906;4.438;2023-08-20T11:09:25;26.70;99.90
19906;DHT22;10115;50.906;4.438;2023-08-20T11:11:52;26.60;99.90
19906;DHT22;10115;50.906;4.438;2023-08-20T11:14:18;26.50;99.90
19906;DHT22;10115;50.906;4.438;2023-08-20T11:16:45;26.40;99.90
19906;DHT22;10115;50.906;4.438;2023-08-20T11:19:11;26.70;99.90
19906;DHT22;10115;50.906;4.438;2023-08-20T11:21:41;27.10;99.90
19906;DHT22;10115;50.906;4.438;2023-08-20T11:24:08;27.30;99.90
19906;DHT22;10115;50.906;4.438;2023-08-20T11:26:35;27.40;99.90
19906;DHT22;10115;50.906;4.438;2023-08-20T11:29:05;27.40;99.90
19906;DHT22;10115;50.906;4.438;2023-08-20T11:31:31;27.40;99.90
19906;DHT22;10115;50.906;4.438;2023-08-20T11:33:57;27.30;99.90
19906;DHT22;10115;50.906;4.438;2023-08-20T11:36:23;27.50;99.90
19906;DHT22;10115;50.906;4.438;2023-08-20T11:38:53;27.70;99.90
19906;DHT22;10115;50.906;4.438;2023-08-20T11:41:23;27.80;99.90
19906;DHT22;10115;50.906;4.438;2023-08-20T11:43:50;27.60;99.90
19906;DHT22;10115;50.906;4.438;2023-08-20T11:46:20;27.40;99.90
19906;DHT22;10115;50.906;4.438;2023-08-20T11:49:06;27.10;99.90
19906;DHT22;10115;50.906;4.438;2023-08-20T11:51:42;27.00;99.90
19906;DHT22;10115;50.906;4.438;2023-08-20T11:54:10;27.00;99.90
19906;DHT22;10115;50.906;4.438;2023-08-20T11:56:46;27.30;99.90
19906;DHT22;10115;50.906;4.438;2023-08-20T11:59:13;27.50;99.90
19906;DHT22;10115;50.906;4.438;2023-08-20T12:01:39;27.80;99.90
19906;DHT22;10115;50.906;4.438;2023-08-20T12:04:07;27.70;99.90
19906;DHT22;10115;50.906;4.438;2023-08-20T12:06:34;27.70;99.90
19906;DHT22;10115;50.906;4.438;2023-08-20T12:09:00;27.50;99.90
19906;DHT22;10115;50.906;4.438;2023-08-20T12:11:27;27.70;99.90
19906;DHT22;10115;50.906;4.438;2023-08-20T12:13:54;27.80;99.90
19906;DHT22;10115;50.906;4.438;2023-08-20T12:16:22;28.10;99.90
19906;DHT22;10115;50.906;4.438;2023-08-20T12:18:48;28.30;99.90
19906;DHT22;10115;50.906;4.438;2023-08-20T12:21:14;28.40;99.90
19906;DHT22;10115;50.906;4.438;2023-08-20T12:23:40;28.00;99.90
19906;DHT22;10115;50.906;4.438;2023-08-20T12:26:05;27.80;99.90
19906;DHT22;10115;50.906;4.438;2023-08-20T12:28:31;28.00;99.90
19906;DHT22;10115;50.906;4.438;2023-08-20T12:30:57;28.30;99.90
19906;DHT22;10115;50.906;4.438;2023-08-20T12:33:22;28.40;99.90
19906;DHT22;10115;50.906;4.438;2023-08-20T12:35:49;28.60;99.90
19906;DHT22;10115;50.906;4.438;2023-08-20T12:38:15;28.80;99.90
19906;DHT22;10115;50.906;4.438;2023-08-20T12:40:41;28.50;99.90
19906;DHT22;10115;50.906;4.438;2023-08-20T12:43:06;28.40;99.90
19906;DHT22;10115;50.906;4.438;2023-08-20T12:45:32;28.70;99.90
19906;DHT22;10115;50.906;4.438;2023-08-20T12:47:57;28.80;99.90
19906;DHT22;10115;50.906;4.438;2023-08-20T12:50:23;28.60;99.90
19906;DHT22;10115;50.906;4.438;2023-08-20T12:52:51;28.90;99.90
19906;DHT22;10115;50.906;4.438;2023-08-20T12:55:16;29.20;99.90
19906;DHT22;10115;50.906;4.438;2023-08-20T12:57:56;29.00;99.90
19906;DHT22;10115;50.906;4.438;2023-08-20T13:00:26;28.80;99.90
19906;DHT22;10115;50.906;4.438;2023-08-20T13:02:55;28.20;99.90
19906;DHT22;10115;50.906;4.438;2023-08-20T13:05:23;28.10;99.90
19906;DHT22;10115;50.906;4.438;2023-08-20T13:07:49;28.60;99.90
19906;DHT22;10115;50.906;4.438;2023-08-20T13:10:15;28.70;99.90
19906;DHT22;10115;50.906;4.438;2023-08-20T13:12:48;28.90;99.90
19906;DHT22;10115;50.906;4.438;2023-08-20T13:15:18;29.60;99.90
19906;DHT22;10115;50.906;4.438;2023-08-20T13:17:46;30.40;99.90
19906;DHT22;10115;50.906;4.438;2023-08-20T13:20:12;31.50;99.90
19906;DHT22;10115;50.906;4.438;2023-08-20T13:22:37;32.80;99.90
19906;DHT22;10115;50.906;4.438;2023-08-20T13:25:03;33.40;99.90
19906;DHT22;10115;50.906;4.438;2023-08-20T13:27:30;33.70;99.90
19906;DHT22;10115;50.906;4.438;2023-08-20T13:29:56;34.50;99.90
19906;DHT22;10115;50.906;4.438;2023-08-20T13:32:22;34.80;99.90
19906;DHT22;10115;50.906;4.438;2023-08-20T13:34:49;35.90;99.90
19906;DHT22;10115;50.906;4.438;2023-08-20T13:37:15;36.00;99.90
19906;DHT22;10115;50.906;4.438;2023-08-20T13:39:40;35.20;99.90
19906;DHT22;10115;50.906;4.438;2023-08-20T13:42:06;34.20;99.90
19906;DHT22;10115;50.906;4.438;2023-08-20T13:44:32;33.80;99.90
19906;DHT22;10115;50.906;4.438;2023-08-20T13:46:59;32.70;99.90
19906;DHT22;10115;50.906;4.438;2023-08-20T13:49:25;32.20;99.90
19906;DHT22;10115;50.906;4.438;2023-08-20T13:51:50;32.00;99.90
19906;DHT22;10115;50.906;4.438;2023-08-20T13:54:16;31.60;99.90
19906;DHT22;10115;50.906;4.438;2023-08-20T13:56:42;31.30;99.90
19906;DHT22;10115;50.906;4.438;2023-08-20T13:59:09;31.10;99.90
19906;DHT22;10115;50.906;4.438;2023-08-20T14:01:35;30.70;99.90
19906;DHT22;10115;50.906;4.438;2023-08-20T14:04:01;30.50;99.90
19906;DHT22;10115;50.906;4.438;2023-08-20T14:06:28;30.20;99.90
19906;DHT22;10115;50.906;4.438;2023-08-20T14:08:54;30.20;99.90
19906;DHT22;10115;50.906;4.438;2023-08-20T14:11:20;30.20;99.90
19906;DHT22;10115;50.906;4.438;2023-08-20T14:13:48;31.30;99.90
19906;DHT22;10115;50.906;4.438;2023-08-20T14:16:13;34.10;99.90
19906;DHT22;10115;50.906;4.438;2023-08-20T14:18:39;35.20;99.90
19906;DHT22;10115;50.906;4.438;2023-08-20T14:21:05;36.10;99.90
19906;DHT22;10115;50.906;4.438;2023-08-20T14:23:31;36.10;99.90
19906;DHT22;10115;50.906;4.438;2023-08-20T14:25:56;34.60;99.90
19906;DHT22;10115;50.906;4.438;2023-08-20T14:28:22;32.70;99.90
19906;DHT22;10115;50.906;4.438;2023-08-20T14:30:48;31.20;99.90
19906;DHT22;10115;50.906;4.438;2023-08-20T14:33:15;30.50;99.90
19906;DHT22;10115;50.906;4.438;2023-08-20T14:35:41;30.30;99.90
19906;DHT22;10115;50.906;4.438;2023-08-20T14:38:06;29.90;99.90
19906;DHT22;10115;50.906;4.438;2023-08-20T14:40:36;29.60;99.90
19906;DHT22;10115;50.906;4.438;2023-08-20T14:43:03;29.40;99.90
19906;DHT22;10115;50.906;4.438;2023-08-20T14:45:29;29.30;99.90
19906;DHT22;10115;50.906;4.438;2023-08-20T14:47:55;29.50;99.90
19906;DHT22;10115;50.906;4.438;2023-08-20T14:50:20;30.20;99.90
19906;DHT22;10115;50.906;4.438;2023-08-20T14:52:46;31.40;99.90
19906;DHT22;10115;50.906;4.438;2023-08-20T14:55:17;31.40;99.90
19906;DHT22;10115;50.906;4.438;2023-08-20T14:57:43;33.70;99.90
19906;DHT22;10115;50.906;4.438;2023-08-20T15:00:09;33.80;99.90
19906;DHT22;10115;50.906;4.438;2023-08-20T15:02:42;34.40;99.90
19906;DHT22;10115;50.906;4.438;2023-08-20T15:05:08;35.60;99.90
19906;DHT22;10115;50.906;4.438;2023-08-20T15:07:34;35.50;99.90
19906;DHT22;10115;50.906;4.438;2023-08-20T15:10:00;34.00;99.90
19906;DHT22;10115;50.906;4.438;2023-08-20T15:12:25;33.90;99.90
19906;DHT22;10115;50.906;4.438;2023-08-20T15:14:51;35.30;99.90
19906;DHT22;10115;50.906;4.438;2023-08-20T15:17:17;35.00;99.90
19906;DHT22;10115;50.906;4.438;2023-08-20T15:19:43;34.80;99.90
19906;DHT22;10115;50.906;4.438;2023-08-20T15:22:08;35.30;99.90
19906;DHT22;10115;50.906;4.438;2023-08-20T15:24:34;34.60;99.90
19906;DHT22;10115;50.906;4.438;2023-08-20T15:27:00;35.40;99.90
19906;DHT22;10115;50.906;4.438;2023-08-20T15:29:25;36.70;99.90
19906;DHT22;10115;50.906;4.438;2023-08-20T15:31:51;36.20;99.90
19906;DHT22;10115;50.906;4.438;2023-08-20T15:34:20;36.70;99.30
19906;DHT22;10115;50.906;4.438;2023-08-20T15:36:45;36.20;98.50